Airfield :
LOGIN :

Register | Disclaimer

   EN    FR    IT 

 










Legend :    VFR   Marginal VFR   IFR   Intensive IFR   Very Intensive IFR
Visi :
Ceiling :
>= 8 km
>= 3000ft
5 to 8 km
1000 to 3000 ft
1500m to 5 km
500 to 1000 ft
800 to 1500m
200 to 500 ft
< 800m
< 200 ft
Symbols :   Thunderstorms  Fog  Heavy snow  Heavy precipitations  Wind > 20 kt
SIGMETs :     Misc.  Thunderstorms  Icing  Turbulence  Mountain Waves  Volcanic Ashes






- Airport Elevation : 461 ft
- IATA code : WIE


ETOU - Wiesbaden Army

CURRENT METAR :
  • 281051Z AUTO 24014KT 9999 -RA SCT017 OVC055 12/11 A2987 RMK AO2 RAB06E32DZB32E37RAB37 SLPNO $

EXPIRED METARs :
  • 281036Z AUTO 22015G17KT 9999 -DZ SCT011 OVC018 12/12 A2986 RMK AO2 RAB06E32DZB32 SLPNO $
  • 281006Z AUTO 19005KT 9999 -RA OVC013 12/12 A2987 RMK AO2 RAB06 SLPNO $
  • 280956Z AUTO 18006KT 9999 OVC013 12/12 A2987 RMK AO2 SLPNO T01220122 $
  • 280856Z AUTO 18005KT 9999 OVC011 11/11 A2986 RMK AO2 DZB0756E07RAB07E26RAB37E52 OVC V BKN SLP116 P0001 60002 T01120112 51019 $
  • 280837Z AUTO 18004KT 9999 -RA OVC010 11/11 A2986 RMK AO2 DZB0756E07RAB07E26RAB37 CIG 010V012 SLP116 $
  • 280826Z AUTO 17004KT 9999 OVC012 11/11 A2986 RMK AO2 DZB0756E07RAB07E26 SLP116 $
  • 280757Z AUTO 19004KT 9999 -DZ OVC013 11/11 A2985 RMK AO2 DZB56 CIG 012 RWY07 SLP113 $

TAF AMD TAF ETOU
Valid from the 28 at 06:00 until the 29 at 10:00 UTC


280630Z 2806/2910 20010KT 8000 -SHRA BKN010 OVC015 610606 QNH2980INS
BECMG 2807/2808 20009KT 9999 NSW SCT010 OVC015 620606 QNH2981INS
BECMG 2811/2812 21015G20KT 9999 FEW030 SCT100 QNH2985INS
TEMPO 2812/2814 8000 -RA BKN020 620606
BECMG 2819/2820 20010KT 9999 BKN030 QNH2988INS
BECMG 2900/2901 24010G15KT 8000 -SHRA SCT010 OVC015 QNH2990INS TX13/2813Z TN08/2904Z



MET'MAP, your aeronautical weather chart ! - Copyright ORBIFLY December 2007 - Disclaimer

ORBIFLY MET'MAP TEAM :

Programming & Development : Alexandra Zaïnal
Concept & original design : Baudouin d'Aumeries
Assistance for programming : Marc-Olivier Méhu
Technical & hardware support : Manuel Goepfert

Contact : metmap@orbifly.com




SOURCES & CREDITS :

   NOAA